| time (UTC) | temp F | wind direction | speed knots | gust knots | rain 1hr in | rain 24hr in | rain mn in | humidity % | barometer mb |
| 20260503213509 | 57 | 36 | 4.3 | 13.0 | 0.00 | 0.00 | 0.00 | 39 | 1009.9 |
| 20260503213027 | 57 | 339 | 2.6 | 10.4 | 0.00 | 0.00 | 0.00 | 39 | 1009.8 |
| 20260503212510 | 57 | 76 | 1.7 | 10.4 | 0.00 | 0.00 | 0.00 | 39 | 1009.8 |
| 20260503212010 | 58 | 314 | 3.5 | 9.6 | 0.00 | 0.00 | 0.00 | 38 | 1009.8 |
| 20260503211520 | 58 | 17 | 0.9 | 9.6 | 0.00 | 0.00 | 0.00 | 41 | 1009.8 |
| 20260503211011 | 57 | 15 | 2.6 | 11.3 | 0.00 | 0.00 | 0.00 | 42 | 1009.8 |
| 20260503210505 | 56 | 34 | 3.5 | 11.3 | 0.00 | 0.00 | 0.00 | 37 | 1009.8 |
| 20260503210014 | 56 | 14 | 2.6 | 12.2 | 0.00 | 0.00 | 0.00 | 40 | 1009.8 |
| 20260503205507 | 57 | 9 | 3.5 | 12.2 | 0.00 | 0.00 | 0.00 | 37 | 1009.8 |
| 20260503205015 | 57 | 47 | 5.2 | 12.2 | 0.00 | 0.00 | 0.00 | 37 | 1009.9 |
| 20260503204523 | 57 | 326 | 4.3 | 12.2 | 0.00 | 0.00 | 0.00 | 37 | 1009.9 |
| 20260503204008 | 58 | 10 | 3.5 | 13.0 | 0.00 | 0.00 | 0.00 | 37 | 1009.9 |
| 20260503203506 | 58 | 97 | 2.6 | 13.0 | 0.00 | 0.00 | 0.00 | 39 | 1009.9 |
| 20260503203020 | 57 | 304 | 5.2 | 10.4 | 0.00 | 0.00 | 0.00 | 37 | 1009.9 |
| 20260503202514 | 58 | 27 | 4.3 | 9.6 | 0.00 | 0.00 | 0.00 | 36 | 1010.1 |
| 20260503202012 | 59 | 132 | 3.5 | 13.0 | 0.00 | 0.00 | 0.00 | 38 | 1010.2 |
| 20260503201528 | 59 | 60 | 3.5 | 14.8 | 0.00 | 0.00 | 0.00 | 39 | 1010.2 |
| 20260503201011 | 58 | 5 | 4.3 | 14.8 | 0.00 | 0.00 | 0.00 | 40 | 1010.1 |
| 20260503200507 | 58 | 45 | 1.7 | 10.4 | 0.00 | 0.00 | 0.00 | 41 | 1010.2 |
| 20260503200022 | 58 | 346 | 3.5 | 10.4 | 0.00 | 0.00 | 0.00 | 41 | 1010.2 |
| 20260503195508 | 57 | 24 | 1.7 | 10.4 | 0.00 | 0.00 | 0.00 | 40 | 1010.2 |
| 20260503195012 | 57 | 82 | 3.5 | 13.9 | 0.00 | 0.00 | 0.00 | 38 | 1010.2 |
| 20260503194527 | 57 | 355 | 4.3 | 13.9 | 0.00 | 0.00 | 0.00 | 38 | 1010.3 |
| 20260503194010 | 58 | 40 | 3.5 | 13.0 | 0.00 | 0.00 | 0.00 | 38 | 1010.4 |
| 20260503193506 | 58 | 19 | 3.5 | 13.0 | 0.00 | 0.00 | 0.00 | 37 | 1010.5 |
| 20260503193014 | 58 | 344 | 2.6 | 13.0 | 0.00 | 0.00 | 0.00 | 41 | 1010.6 |
| 20260503192506 | 58 | 114 | 1.7 | 10.4 | 0.00 | 0.00 | 0.00 | 44 | 1010.6 |
| 20260503192015 | 58 | 89 | 4.3 | 13.0 | 0.00 | 0.00 | 0.00 | 42 | 1010.8 |
| 20260503191521 | 57 | 284 | 5.2 | 13.0 | 0.00 | 0.00 | 0.00 | 39 | 1010.9 |
| 20260503191010 | 56 | 58 | 3.5 | 10.4 | 0.00 | 0.00 | 0.00 | 41 | 1010.8 |
| 20260503190507 | 56 | 342 | 2.6 | 10.4 | 0.00 | 0.00 | 0.00 | 39 | 1010.9 |
| 20260503190021 | 57 | 14 | 3.5 | 16.5 | 0.00 | 0.00 | 0.00 | 39 | 1010.9 |
| 20260503185506 | 57 | 57 | 6.1 | 16.5 | 0.00 | 0.00 | 0.00 | 41 | 1011.0 |
| 20260503185006 | 57 | 38 | 7.8 | 16.5 | 0.00 | 0.00 | 0.00 | 39 | 1011.0 |
| 20260503184522 | 56 | 102 | 2.6 | 12.2 | 0.00 | 0.00 | 0.00 | 44 | 1011.1 |
| 20260503184007 | 56 | 16 | 4.3 | 12.2 | 0.00 | 0.00 | 0.00 | 38 | 1011.0 |
| 20260503183517 | 57 | 18 | 2.6 | 8.7 | 0.00 | 0.00 | 0.00 | 42 | 1011.1 |
| 20260503183030 | 57 | 111 | 2.6 | 8.7 | 0.00 | 0.00 | 0.00 | 42 | 1011.2 |
| 20260503182509 | 56 | 98 | 2.6 | 14.8 | 0.00 | 0.00 | 0.00 | 42 | 1011.2 |
| 20260503182011 | 55 | 12 | 6.1 | 14.8 | 0.00 | 0.00 | 0.00 | 39 | 1011.2 |
| 20260503181528 | 55 | 352 | 0.9 | 10.4 | 0.00 | 0.00 | 0.00 | 42 | 1011.2 |
| 20260503181004 | 55 | 175 | 2.6 | 10.4 | 0.00 | 0.00 | 0.00 | 41 | 1011.2 |
| 20260503180504 | 55 | 34 | 3.5 | 14.8 | 0.00 | 0.00 | 0.00 | 42 | 1011.2 |
| 20260503180004 | 55 | 348 | 5.2 | 14.8 | 0.00 | 0.00 | 0.00 | 40 | 1011.3 |
| 20260503175504 | 55 | 9 | 3.5 | 13.9 | 0.00 | 0.00 | 0.00 | 40 | 1011.3 |
| 20260503175007 | 55 | 324 | 3.5 | 13.9 | 0.00 | 0.00 | 0.00 | 44 | 1011.3 |
| 20260503174507 | 55 | 50 | 4.3 | 13.9 | 0.00 | 0.00 | 0.00 | 44 | 1011.5 |
| 20260503174002 | 55 | 326 | 4.3 | 13.0 | 0.00 | 0.00 | 0.00 | 43 | 1011.5 |
| 20260503173502 | 54 | 40 | 2.6 | 12.2 | 0.00 | 0.00 | 0.00 | 42 | 1011.5 |
| 20260503173024 | 54 | 18 | 4.3 | 12.2 | 0.00 | 0.00 | 0.00 | 39 | 1011.5 |
| 20260503172502 | 55 | 5 | 2.6 | 10.4 | 0.00 | 0.00 | 0.00 | 41 | 1011.5 |
| 20260503172003 | 55 | 179 | 1.7 | 13.0 | 0.00 | 0.00 | 0.00 | 43 | 1011.5 |
| 20260503171512 | 55 | 20 | 3.5 | 13.0 | 0.00 | 0.00 | 0.00 | 42 | 1011.5 |
| 20260503171006 | 54 | 345 | 3.5 | 13.0 | 0.00 | 0.00 | 0.00 | 47 | 1011.5 |
| 20260503170503 | 54 | 10 | 2.6 | 18.2 | 0.00 | 0.00 | 0.00 | 43 | 1011.6 |
| 20260503151006 | 50 | 67 | 5.2 | 13.9 | 0.00 | 0.00 | 0.00 | 49 | 1012.7 |
| 20260503150512 | 49 | 97 | 0.9 | 16.5 | 0.00 | 0.00 | 0.00 | 55 | 1012.7 |
| 20260503131007 | 45 | 49 | 3.5 | 9.6 | 0.00 | 0.00 | 0.00 | 59 | 1013.2 |
| 20260503130509 | 45 | 19 | 2.6 | 8.7 | 0.00 | 0.00 | 0.00 | 61 | 1013.2 |
| 20260503110513 | 34 | 35 | 0.0 | 7.0 | 0.00 | 0.00 | 0.00 | 76 | 1012.6 |
| 20260503090505 | 36 | 123 | 1.7 | 8.7 | 0.00 | 0.01 | 0.00 | 71 | 1011.6 |
| 20260503081513 | 36 | 13 | 0.9 | 7.0 | 0.00 | 0.01 | 0.00 | 72 | 1011.5 |
| 20260503081007 | 36 | 122 | 0.0 | 0.9 | 0.00 | 0.01 | 0.00 | 72 | 1011.5 |
| 20260503080505 | 36 | 117 | 0.0 | 2.6 | 0.00 | 0.01 | 0.00 | 72 | 1011.4 |
| 20260503072506 | 36 | 113 | 0.0 | 3.5 | 0.00 | 0.01 | 0.00 | 72 | 1011.3 |
| 20260503072006 | 36 | 61 | 0.0 | 2.6 | 0.00 | 0.01 | 0.00 | 72 | 1011.3 |
| 20260503071505 | 36 | 123 | 0.0 | 2.6 | 0.00 | 0.01 | 0.00 | 72 | 1011.3 |
| 20260503071004 | 36 | 70 | 0.0 | 1.7 | 0.00 | 0.01 | 0.00 | 72 | 1011.3 |
| 20260503070504 | 36 | 35 | 0.0 | 2.6 | 0.00 | 0.01 | 0.00 | 73 | 1011.2 |
| 20260503055003 | 37 | 132 | 0.0 | 2.6 | 0.00 | 0.01 | 0.00 | 69 | 1011.3 |
| 20260503054513 | 37 | 67 | 0.9 | 1.7 | 0.00 | 0.01 | 0.00 | 70 | 1011.3 |
| 20260503054008 | 37 | 77 | 0.0 | 1.7 | 0.00 | 0.01 | 0.00 | 71 | 1011.2 |
| 20260503053509 | 37 | 76 | 0.0 | 1.7 | 0.00 | 0.02 | 0.00 | 73 | 1011.3 |
| 20260503053012 | 37 | 46 | 0.0 | 1.7 | 0.00 | 0.02 | 0.00 | 72 | 1011.3 |
| 20260503052505 | 37 | 96 | 0.0 | 0.9 | 0.00 | 0.02 | 0.00 | 73 | 1011.4 |
| 20260503052010 | 37 | 121 | 0.0 | 7.8 | 0.00 | 0.03 | 0.00 | 73 | 1011.3 |
| 20260503051512 | 37 | 146 | 0.9 | 7.8 | 0.00 | 0.03 | 0.00 | 71 | 1011.4 |
| 20260503051010 | 37 | 56 | 0.0 | 1.7 | 0.00 | 0.03 | 0.00 | 75 | 1011.5 |
| 20260503050505 | 37 | 34 | 0.0 | 1.7 | 0.00 | 0.03 | 0.00 | 79 | 1011.5 |
| 20260503050008 | 37 | 61 | 0.0 | 0.0 | 0.00 | 0.03 | 0.00 | 78 | 1011.5 |
| 20260503045503 | 37 | 61 | 0.0 | 0.0 | 0.00 | 0.03 | 0.00 | 78 | 1011.5 |
| 20260503045010 | 37 | 61 | 0.0 | 0.9 | 0.00 | 0.03 | 0.00 | 78 | 1011.5 |
| 20260503044522 | 37 | 61 | 0.0 | 0.9 | 0.00 | 0.03 | 0.00 | 77 | 1011.5 |
| 20260503044010 | 38 | 44 | 0.0 | 0.0 | 0.00 | 0.03 | 0.00 | 77 | 1011.5 |
| 20260503043507 | 38 | 44 | 0.0 | 0.0 | 0.00 | 0.03 | 0.00 | 77 | 1011.5 |
| 20260503043012 | 38 | 44 | 0.0 | 0.9 | 0.00 | 0.03 | 0.00 | 75 | 1011.5 |
| 20260503042509 | 38 | 44 | 0.0 | 0.9 | 0.00 | 0.03 | 0.00 | 76 | 1011.5 |
| 20260503042007 | 38 | 44 | 0.0 | 0.9 | 0.00 | 0.04 | 0.00 | 75 | 1011.5 |
| 20260503041510 | 38 | 56 | 0.0 | 0.0 | 0.00 | 0.04 | 0.00 | 74 | 1011.6 |
| 20260503041007 | 39 | 56 | 0.0 | 0.0 | 0.00 | 0.05 | 0.00 | 71 | 1011.6 |
| 20260503040513 | 39 | 56 | 0.0 | 1.7 | 0.00 | 0.06 | 0.00 | 73 | 1011.6 |
| 20260503040015 | 39 | 56 | 0.0 | 1.7 | 0.00 | 0.07 | 0.00 | 72 | 1011.6 |
| 20260503035507 | 39 | 40 | 0.0 | 1.7 | 0.00 | 0.07 | 0.07 | 73 | 1011.6 |
| 20260503035011 | 39 | 40 | 0.0 | 1.7 | 0.00 | 0.07 | 0.07 | 72 | 1011.7 |
| 20260503034513 | 40 | 40 | 0.0 | 1.7 | 0.00 | 0.07 | 0.07 | 72 | 1011.7 |
| 20260503034007 | 40 | 46 | 0.0 | 1.7 | 0.00 | 0.07 | 0.07 | 71 | 1011.7 |
| 20260503033505 | 40 | 57 | 0.0 | 1.7 | 0.00 | 0.07 | 0.07 | 69 | 1011.7 |
| 20260503033014 | 40 | 69 | 0.0 | 2.6 | 0.00 | 0.07 | 0.07 | 69 | 1011.7 |
| 20260503032509 | 40 | 69 | 0.0 | 2.6 | 0.00 | 0.07 | 0.07 | 67 | 1011.8 |
| 20260503032010 | 40 | 34 | 0.0 | 2.6 | 0.00 | 0.07 | 0.07 | 70 | 1011.9 |
| 20260503031517 | 40 | 26 | 0.0 | 5.2 | 0.00 | 0.07 | 0.07 | 69 | 1011.9 |
| 20260503031007 | 40 | 14 | 0.0 | 5.2 | 0.00 | 0.07 | 0.07 | 68 | 1011.9 |
| 20260503030508 | 41 | 26 | 0.0 | 5.2 | 0.00 | 0.07 | 0.07 | 69 | 1011.9 |
| 20260503030016 | 41 | 20 | 0.0 | 5.2 | 0.00 | 0.07 | 0.07 | 66 | 1011.8 |
| 20260503025512 | 41 | 322 | 0.9 | 3.5 | 0.00 | 0.07 | 0.07 | 67 | 1011.9 |
| 20260503025010 | 41 | 75 | 0.0 | 3.5 | 0.00 | 0.07 | 0.07 | 67 | 1011.9 |
| 20260503024520 | 41 | 26 | 0.0 | 4.3 | 0.00 | 0.07 | 0.07 | 68 | 1011.8 |
| 20260503024009 | 41 | 355 | 0.9 | 4.3 | 0.00 | 0.07 | 0.07 | 68 | 1011.9 |
| 20260503023508 | 41 | 360 | 0.0 | 2.6 | 0.00 | 0.07 | 0.07 | 71 | 1012.0 |
| 20260503023023 | 41 | 82 | 0.0 | 2.6 | 0.00 | 0.07 | 0.07 | 68 | 1012.0 |
| 20260503022507 | 41 | 26 | 0.0 | 2.6 | 0.00 | 0.07 | 0.07 | 69 | 1012.0 |
| 20260503022010 | 41 | 31 | 0.0 | 2.6 | 0.00 | 0.07 | 0.07 | 68 | 1012.0 |
| 20260503021519 | 41 | 51 | 0.9 | 6.1 | 0.00 | 0.07 | 0.07 | 69 | 1012.1 |
| 20260503021016 | 41 | 44 | 1.7 | 6.1 | 0.00 | 0.07 | 0.07 | 69 | 1012.1 |
| 20260503020510 | 41 | 348 | 0.0 | 4.3 | 0.00 | 0.07 | 0.07 | 70 | 1012.0 |
| 20260503020028 | 41 | 68 | 0.9 | 7.0 | 0.00 | 0.07 | 0.07 | 69 | 1011.9 |
| 20260503015509 | 41 | 31 | 1.7 | 7.0 | 0.00 | 0.07 | 0.07 | 69 | 1011.8 |
| 20260503015012 | 41 | 88 | 2.6 | 7.0 | 0.00 | 0.07 | 0.07 | 70 | 1011.8 |
| 20260503014520 | 41 | 338 | 0.9 | 6.1 | 0.00 | 0.08 | 0.07 | 71 | 1011.7 |
| 20260503014008 | 41 | 47 | 1.7 | 7.0 | 0.00 | 0.08 | 0.07 | 73 | 1011.7 |
| 20260503013510 | 41 | 50 | 1.7 | 7.0 | 0.00 | 0.08 | 0.07 | 73 | 1011.7 |
| 20260503013018 | 41 | 27 | 2.6 | 5.2 | 0.00 | 0.08 | 0.07 | 73 | 1011.8 |
| 20260503012511 | 41 | 15 | 0.9 | 4.3 | 0.00 | 0.08 | 0.07 | 73 | 1011.8 |
| 20260503012015 | 41 | 322 | 0.9 | 4.3 | 0.00 | 0.08 | 0.07 | 73 | 1011.7 |
| 20260503011516 | 41 | 337 | 0.9 | 4.3 | 0.00 | 0.08 | 0.07 | 73 | 1011.7 |
| 20260503011007 | 41 | 340 | 0.9 | 4.3 | 0.00 | 0.08 | 0.07 | 72 | 1011.6 |
| 20260503010507 | 41 | 18 | 1.7 | 4.3 | 0.00 | 0.08 | 0.07 | 72 | 1011.6 |
| 20260503010017 | 42 | 45 | 0.9 | 5.2 | 0.00 | 0.08 | 0.07 | 72 | 1011.6 |
| 20260503005509 | 42 | 322 | 1.7 | 5.2 | 0.00 | 0.08 | 0.07 | 73 | 1011.5 |
| 20260503005010 | 42 | 30 | 0.0 | 5.2 | 0.00 | 0.08 | 0.07 | 74 | 1011.5 |
| 20260503004523 | 42 | 74 | 0.9 | 5.2 | 0.00 | 0.08 | 0.07 | 75 | 1011.5 |
| 20260503004011 | 42 | 20 | 0.9 | 4.3 | 0.00 | 0.08 | 0.07 | 75 | 1011.4 |
| 20260503003511 | 42 | 46 | 0.0 | 3.5 | 0.00 | 0.08 | 0.07 | 75 | 1011.3 |
| 20260503003031 | 42 | 328 | 0.9 | 5.2 | 0.00 | 0.08 | 0.07 | 74 | 1011.2 |
| 20260503002509 | 42 | 34 | 0.9 | 5.2 | 0.00 | 0.08 | 0.07 | 73 | 1011.3 |
| 20260503002007 | 42 | 327 | 0.9 | 5.2 | 0.00 | 0.08 | 0.07 | 74 | 1011.2 |
| 20260503001526 | 42 | 350 | 0.9 | 4.3 | 0.00 | 0.09 | 0.07 | 73 | 1011.2 |
| 20260503001004 | 43 | 40 | 0.0 | 5.2 | 0.00 | 0.09 | 0.07 | 73 | 1011.3 |
| 20260503000504 | 43 | 16 | 1.7 | 5.2 | 0.00 | 0.10 | 0.07 | 72 | 1011.2 |
| 20260503000015 | 43 | 5 | 1.7 | 4.3 | 0.00 | 0.10 | 0.07 | 73 | 1011.3 |
| 20260502235504 | 43 | 360 | 1.7 | 3.5 | 0.00 | 0.10 | 0.07 | 72 | 1011.2 |
| 20260502235004 | 43 | 57 | 0.0 | 5.2 | 0.00 | 0.10 | 0.07 | 72 | 1011.2 |
| 20260502234506 | 43 | 9 | 0.9 | 5.2 | 0.00 | 0.11 | 0.07 | 72 | 1011.1 |
| 20260502234003 | 43 | 36 | 0.9 | 4.3 | 0.00 | 0.11 | 0.07 | 72 | 1011.1 |
| 20260502233504 | 43 | 11 | 0.0 | 4.3 | 0.00 | 0.11 | 0.07 | 73 | 1011.1 |
| 20260502233006 | 43 | 351 | 0.9 | 4.3 | 0.00 | 0.11 | 0.07 | 71 | 1011.1 |
| 20260502232503 | 43 | 42 | 0.0 | 3.5 | 0.00 | 0.11 | 0.07 | 71 | 1011.0 |
| 20260502232004 | 43 | 66 | 0.9 | 4.3 | 0.00 | 0.11 | 0.07 | 71 | 1011.0 |
| 20260502231507 | 43 | 65 | 0.0 | 5.2 | 0.00 | 0.11 | 0.07 | 70 | 1011.0 |
| 20260502231003 | 44 | 21 | 0.9 | 5.2 | 0.00 | 0.11 | 0.07 | 71 | 1010.8 |
| 20260502230503 | 44 | 136 | 0.0 | 4.3 | 0.00 | 0.11 | 0.07 | 72 | 1010.8 |
| 20260502230009 | 44 | 115 | 0.0 | 4.3 | 0.00 | 0.11 | 0.07 | 71 | 1010.9 |
| 20260502225503 | 44 | 34 | 0.9 | 5.2 | 0.00 | 0.11 | 0.07 | 70 | 1010.7 |
| 20260502225005 | 44 | 52 | 1.7 | 5.2 | 0.00 | 0.11 | 0.07 | 71 | 1010.8 |
| 20260502224507 | 44 | 78 | 0.0 | 2.6 | 0.00 | 0.11 | 0.07 | 71 | 1010.8 |
| 20260502224007 | 44 | 18 | 0.9 | 2.6 | 0.00 | 0.11 | 0.07 | 69 | 1010.8 |
| 20260502223505 | 44 | 31 | 0.0 | 1.7 | 0.00 | 0.11 | 0.07 | 71 | 1010.8 |
| 20260502223022 | 45 | 32 | 0.0 | 2.6 | 0.00 | 0.11 | 0.07 | 70 | 1010.9 |
| 20260502222504 | 45 | 30 | 0.0 | 3.5 | 0.00 | 0.11 | 0.07 | 70 | 1010.7 |
| 20260502222005 | 45 | 71 | 0.9 | 3.5 | 0.00 | 0.11 | 0.07 | 70 | 1010.8 |
| 20260502221504 | 45 | 32 | 0.0 | 3.5 | 0.00 | 0.11 | 0.07 | 70 | 1010.8 |
| 20260502221008 | 45 | 36 | 0.0 | 0.0 | 0.00 | 0.11 | 0.07 | 71 | 1010.8 |
| 20260502220506 | 45 | 69 | 0.0 | 4.3 | 0.00 | 0.11 | 0.07 | 70 | 1010.7 |
| 20260502220006 | 45 | 360 | 0.0 | 4.3 | 0.00 | 0.11 | 0.07 | 71 | 1010.7 |
| 20260502215507 | 45 | 27 | 1.7 | 4.3 | 0.00 | 0.11 | 0.07 | 72 | 1010.7 |
| 20260502215007 | 45 | 86 | 0.0 | 4.3 | 0.00 | 0.11 | 0.07 | 73 | 1010.8 |
| 20260502214509 | 44 | 360 | 0.0 | 4.3 | 0.00 | 0.11 | 0.07 | 72 | 1010.7 |
| 20260502214007 | 44 | 93 | 0.9 | 2.6 | 0.00 | 0.11 | 0.07 | 73 | 1010.7 |